Terminal Aerodrome Forecast
Issued by NWS

Home | Current Version | Previous Version | Text Only | Print | Product List | Glossary On
Versions: 1 2 3 4 5 6 7 8 9 10 11 12 13 14 15 16 17 18 19
000
FTUS42 KMLB 030529
TAFTIX
TAF
KTIX 030529Z 0306/0406 02003KT 1/2SM FG VV002
     FM031400 05006KT 3SM BR SCT005 SCT020
     FM031500 11011KT P6SM SCT030
     FM040000 12006KT P6SM FEW020 SCT250
      AMD NOT SKED TIL 031200=

USA.gov is the U.S. government's official web portal to all federal, state and local government web resources and services.